Keauhou, HI

12:13 AM HST on April 26, 2017 (GMT -1000)
Keauhou Bay, Kailua Kona | | Change Station

Elev 52 ft 19.56 °N, 155.96 °W | Updated 15 seconds ago

Mostly Cloudy
Mostly Cloudy
73.0 °F
Feels Like 74 °F
N
2.6
Wind Variable Wind from ENE
Gusts 4.0 mph

Today
High -- | Low -- °F
--% Chance of Precip.
Yesterday
High -- | Low -- °F
Precip. -- in
Pressure 30.07 in
Visibility 10.0 miles
Clouds Mostly Cloudy 3900 ft
Heat Index 74 °F
Dew Point 65 °F
Humidity 76%
Rainfall 0.00 in
Snow Depth Not available.
5:58 AM 6:45 PM
Waning Crescent, 0% visible
METAR PHKO 260953Z AUTO 05003KT 10SM BKN039 25/19 A3006 RMK AO2 SLP181 T02500189 402940217 TSNO
Pressure 30.07 in
Visibility 10.0 miles
Clouds Mostly Cloudy 3900 ft
Heat Index 74 °F
Dew Point 65 °F
Humidity 76%
Rainfall 0.00 in
Snow Depth Not available.
5:58 AM 6:45 PM
Waning Crescent, 0% visible
METAR PHKO 260953Z AUTO 05003KT 10SM BKN039 25/19 A3006 RMK AO2 SLP181 T02500189 402940217 TSNO

Get Severe Weather Alerts

Thanks for signing up!

Be on the lookout for a verification email in your inbox.

You'll start receiving the daily forecast at 8 AM.

×

10-Day Weather Forecast

Almanac

Astronomy

Apr. 26, 2017 Rise Set
Actual Time
Civil Twilight
Nautical Twilight
Astronomical Twilight
Moon
Length of Visible Light
Length of Day
Tomorrow will be .
, % of the Moon is Illuminated

Today's Extremes

State Highs State Lows

Community

WunderPhotos

WunderBlog® & News

Nearby

Air Quality

  Air Quality AQ Index Pollutant
Not available.

Snow Depth

Station Depth Elevation

Earthquake Activity

City Distance Mag. Time & Date
Minimum magnitude displayed is 2.5.

Coastal Water Temperatures

Place Temperature

Stations

Nearby Weather Stations

Station Location Temp. Windchill Dew Point Humidity Wind Precip. Elev Updated Type
                   

Watches & Warnings

There are currently no watches in effect.